Darstellungsparameter: Aktuell verwendete Einstellungen:
Skalierung der Graphiken ... ?
xyx+y,   Skalierungsfaktor:      Skalierung: Modus: x, Faktor: 1
Darstellungszeitraum ... ?
Vom - - bis: - -   Zeitraum: 23.04.2010 - 29.04.2010
Min/Max/Avg-Anzeige ... ?
Zeige MMA aktuell
Zeige MMA Monat
Zeige MMA alles
Zeige --A aktuell
Zeige --A Monat
Zeige --A alles
Keine MMA-Anzeige
MMA:
Average (ber die Originaldaten)
MMA-Basis: 23.04.2010 - 29.04.2010
Quicknavigation für Darstellung... ?
Tage:      1T, 2T, 3T, 5T -1T -2T -3T -5T +1T +2T +3T +5T
Wochen: 1W, 2W, 3W -1W -2W -3W +1W +2W +3W
Monate: 1M, 3M, 6M -1M -3M -6M +1M +3M +6M
Jahre:    1J, 3J, 5J, 10J -1J -3J -5J -10J +1J +3J +5J +10J
Nutze für die Darstellung ... ?
Originaldaten oder Mittelwerte auf ...
Stundenbasis Tagesbasis Wochenbasis
Monatsbasis Jahresbasis      Datenbasis: Original-Daten
Darstellen als:
Statistik (Auto) Statistik J:M      Darstellung:
Zur Graphik,    zurück zur Übersicht aller Sensoren.
 
Tabellarische Datenbersicht: ?
 
Sensor: Nr:Datum:Temp:Abs-Feuchte:Windchill:Wind:
Aussen-T/F 1 23-04-2010 00:09:02 7.3 C 3.32 g/m*3 7.3 C 0 km/h
2 23-04-2010 00:21:02 7.1 C 3.28 g/m*3 7.1 C 0 km/h
3 23-04-2010 00:33:02 6.8 C 3.44 g/m*3 6.8 C 0 km/h
4 23-04-2010 00:45:02 6.5 C 3.37 g/m*3 6.5 C 0 km/h
5 23-04-2010 00:57:03 6.2 C 3.46 g/m*3 6.2 C 0 km/h
6 23-04-2010 01:09:03 6 C 3.41 g/m*3 6 C 0 km/h
7 23-04-2010 01:21:03 5.8 C 3.51 g/m*3 5.8 C 0 km/h
8 23-04-2010 01:33:03 5.5 C 3.51 g/m*3 5.5 C 0 km/h
9 23-04-2010 01:45:03 5.4 C 3.49 g/m*3 5.4 C 0 km/h
10 23-04-2010 01:57:03 5.3 C 3.53 g/m*3 5.3 C 0 km/h
11 23-04-2010 02:09:03 5 C 3.47 g/m*3 5 C 0 km/h
12 23-04-2010 02:21:03 4.8 C 3.62 g/m*3 4.8 C 0 km/h
13 23-04-2010 02:33:03 4.5 C 3.55 g/m*3 4.5 C 0 km/h
14 23-04-2010 02:45:03 4.4 C 3.59 g/m*3 4.4 C 0 km/h
15 23-04-2010 02:57:03 4.2 C 3.61 g/m*3 4.2 C 0 km/h
16 23-04-2010 03:09:03 3.9 C 3.73 g/m*3 3.9 C 0 km/h
17 23-04-2010 03:21:03 3.7 C 3.68 g/m*3 3.7 C 0 km/h
18 23-04-2010 03:33:03 3.5 C 3.75 g/m*3 3.5 C 0 km/h
19 23-04-2010 03:45:03 3.3 C 3.76 g/m*3 3.3 C 0 km/h
20 23-04-2010 03:57:03 3.2 C 3.74 g/m*3 3.2 C 0 km/h
21 23-04-2010 04:09:03 2.9 C 3.78 g/m*3 2.9 C 0 km/h
22 23-04-2010 04:21:03 2.8 C 3.75 g/m*3 2.8 C 0 km/h
23 23-04-2010 04:33:03 2.7 C 3.73 g/m*3 2.7 C 0 km/h
24 23-04-2010 04:45:03 2.5 C 3.68 g/m*3 2.5 C 0 km/h
25 23-04-2010 04:57:03 2.4 C 3.77 g/m*3 2.4 C 0 km/h
Sensor: Nr:Datum:Temp:Abs-Feuchte:Windchill:Wind:
Aussen-T/F 26 23-04-2010 05:09:04 2.2 C 3.66 g/m*3 2.2 C 0 km/h
27 23-04-2010 05:21:04 2.1 C 3.69 g/m*3 2.1 C 0 km/h
28 23-04-2010 05:33:04 1.9 C 3.7 g/m*3 1.9 C 0 km/h
29 23-04-2010 05:45:04 1.7 C 3.7 g/m*3 1.7 C 0 km/h
30 23-04-2010 05:57:04 1.6 C 3.79 g/m*3 1.6 C 0 km/h
31 23-04-2010 06:09:04 1.6 C 3.79 g/m*3 1.6 C 0 km/h
32 23-04-2010 06:21:04 1.4 C 3.79 g/m*3 1.4 C 0 km/h
33 23-04-2010 06:33:04 1.3 C 3.81 g/m*3 1.3 C 0 km/h
34 23-04-2010 06:45:04 1.2 C 3.79 g/m*3 1.2 C 0 km/h
35 23-04-2010 06:57:04 1.3 C 3.81 g/m*3 1.3 C 0 km/h
36 23-04-2010 07:09:02 1.3 C 3.81 g/m*3 1.3 C 0 km/h
37 23-04-2010 07:21:01 1.3 C 3.81 g/m*3 1.3 C 0 km/h
38 23-04-2010 07:33:02 1.5 C 3.87 g/m*3 1.5 C 0 km/h
39 23-04-2010 07:45:01 1.6 C 3.95 g/m*3 1.6 C 0 km/h
40 23-04-2010 07:57:01 1.8 C 4 g/m*3 1.8 C 0 km/h
41 23-04-2010 08:09:02 2 C 3.95 g/m*3 2 C 0 km/h
42 23-04-2010 08:21:01 2.3 C 4.03 g/m*3 2.3 C 0 km/h
43 23-04-2010 08:33:02 2.5 C 4.02 g/m*3 2.5 C 0 km/h
44 23-04-2010 08:45:02 2.9 C 4.13 g/m*3 2.9 C 0 km/h
45 23-04-2010 08:57:02 3.3 C 4.19 g/m*3 3.3 C 0 km/h
46 23-04-2010 09:09:02 3.8 C 4.27 g/m*3 3.8 C 0 km/h
47 23-04-2010 09:21:01 4.6 C 4.23 g/m*3 4.6 C 0 km/h
48 23-04-2010 09:33:02 5.4 C 4.19 g/m*3 5.4 C 0 km/h
49 23-04-2010 09:45:02 6.1 C 4.09 g/m*3 6.1 C 0 km/h
50 23-04-2010 09:57:02 6.7 C 3.95 g/m*3 6.7 C 0 km/h
Sensor: Nr:Datum:Temp:Abs-Feuchte:Windchill:Wind:
Aussen-T/F 51 23-04-2010 10:09:02 7.5 C 4 g/m*3 7.5 C 0 km/h
52 23-04-2010 10:21:01 8.3 C 3.96 g/m*3 8.3 C 0 km/h
53 23-04-2010 10:33:02 9 C 3.97 g/m*3 9 C 0 km/h
54 23-04-2010 10:45:02 9.6 C 3.94 g/m*3 9.6 C 0 km/h
55 23-04-2010 10:57:02 10.3 C 3.83 g/m*3 10.3 C 0 km/h
56 23-04-2010 11:09:02 11 C 3.8 g/m*3 11 C 0 km/h
57 23-04-2010 11:21:01 11.7 C 3.87 g/m*3 11.7 C 0 km/h
58 23-04-2010 11:33:02 12.5 C 3.85 g/m*3 12.5 C 0 km/h
59 23-04-2010 11:45:02 12.9 C 3.49 g/m*3 12.9 C 0 km/h
60 23-04-2010 11:57:02 13.5 C 3.04 g/m*3 13.5 C 0 km/h
61 23-04-2010 12:09:02 14.2 C 3.05 g/m*3 14.2 C 0 km/h
62 23-04-2010 12:21:02 14.4 C 2.47 g/m*3 14.4 C 0 km/h
63 23-04-2010 12:33:02 14.9 C 2.55 g/m*3 14.9 C 0 km/h
64 23-04-2010 12:45:02 15.2 C 2.6 g/m*3 15.2 C 0 km/h
65 23-04-2010 12:57:02 15.7 C 2.68 g/m*3 15.7 C 0 km/h
66 23-04-2010 13:09:02 16.2 C 2.76 g/m*3 16.2 C 0 km/h
67 23-04-2010 13:21:03 17 C 2.89 g/m*3 17 C 0 km/h
68 23-04-2010 13:33:02 17.4 C 2.96 g/m*3 17.4 C 0 km/h
69 23-04-2010 13:45:02 17.8 C 3.04 g/m*3 17.8 C 0 km/h
70 23-04-2010 13:57:02 17.5 C 2.98 g/m*3 17.5 C 0 km/h
71 23-04-2010 14:09:02 18.4 C 3.15 g/m*3 18.4 C 0 km/h
72 23-04-2010 14:21:02 18.5 C 3.16 g/m*3 18.5 C 0 km/h
73 23-04-2010 14:33:02 19.1 C 3.28 g/m*3 19.1 C 0 km/h
74 23-04-2010 14:45:02 19.6 C 3.38 g/m*3 19.6 C 0 km/h
75 23-04-2010 14:57:02 20.9 C 3.64 g/m*3 20.9 C 0 km/h
Sensor: Nr:Datum:Temp:Abs-Feuchte:Windchill:Wind:
Aussen-T/F 76 23-04-2010 15:09:02 22.1 C 3.9 g/m*3 22.1 C 0 km/h
77 23-04-2010 15:21:02 21.6 C 3.79 g/m*3 21.6 C 0 km/h
78 23-04-2010 15:33:02 22.5 C 3.99 g/m*3 22.5 C 0 km/h
79 23-04-2010 15:45:03 22.6 C 4.02 g/m*3 22.6 C 0 km/h
80 23-04-2010 15:57:03 22.5 C 3.99 g/m*3 22.5 C 0 km/h
81 23-04-2010 16:09:02 22.6 C 4.02 g/m*3 22.6 C 0 km/h
82 23-04-2010 16:21:02 22.9 C 4.09 g/m*3 22.9 C 0 km/h
83 23-04-2010 16:33:02 22.9 C 4.09 g/m*3 22.9 C 0 km/h
84 23-04-2010 16:45:02 23 C 4.11 g/m*3 23 C 0 km/h
85 23-04-2010 16:57:02 23.5 C 4.23 g/m*3 23.5 C 0 km/h
86 23-04-2010 17:09:03 24.5 C 4.48 g/m*3 24.5 C 0 km/h
87 23-04-2010 17:21:03 22.9 C 4.09 g/m*3 22.9 C 0 km/h
88 23-04-2010 17:33:02 22.5 C 3.99 g/m*3 22.5 C 0 km/h
89 23-04-2010 17:45:03 23 C 4.11 g/m*3 23 C 0 km/h
90 23-04-2010 17:57:03 24.5 C 4.48 g/m*3 24.5 C 0 km/h
91 23-04-2010 18:09:02 24.1 C 4.38 g/m*3 24.1 C 0 km/h
92 23-04-2010 18:21:03 22.9 C 4.09 g/m*3 22.9 C 0 km/h
93 23-04-2010 18:33:02 22.6 C 4.02 g/m*3 22.6 C 0 km/h
94 23-04-2010 18:45:02 22.1 C 3.9 g/m*3 22.1 C 0 km/h
95 23-04-2010 18:57:02 21.9 C 3.86 g/m*3 21.9 C 0 km/h
96 23-04-2010 19:09:02 21.9 C 3.86 g/m*3 21.9 C 0 km/h
97 23-04-2010 19:21:02 20.9 C 3.64 g/m*3 20.9 C 0 km/h
98 23-04-2010 19:33:02 20.2 C 3.5 g/m*3 20.2 C 0 km/h
99 23-04-2010 19:45:01 19.4 C 3.34 g/m*3 19.4 C 0 km/h
100 23-04-2010 19:57:01 19.2 C 3.3 g/m*3 19.2 C 0 km/h
Sensor: Nr:Datum:Temp:Abs-Feuchte:Windchill:Wind:
Aussen-T/F 101 23-04-2010 20:09:02 18.3 C 3.13 g/m*3 18.3 C 0 km/h
102 23-04-2010 20:21:01 17.6 C 3 g/m*3 17.6 C 0 km/h
103 23-04-2010 20:33:01 17 C 2.89 g/m*3 17 C 0 km/h
104 23-04-2010 20:45:01 16.5 C 2.81 g/m*3 16.5 C 0 km/h
105 23-04-2010 20:57:01 15.6 C 2.66 g/m*3 15.6 C 0 km/h
106 23-04-2010 21:09:01 14.9 C 2.55 g/m*3 14.9 C 0 km/h
107 23-04-2010 21:21:02 14.3 C 2.46 g/m*3 14.3 C 0 km/h
108 23-04-2010 21:33:02 14.2 C 2.44 g/m*3 14.2 C 0 km/h
109 23-04-2010 21:45:02 13.8 C 2.38 g/m*3 13.8 C 0 km/h
110 23-04-2010 21:57:02 13.4 C 2.67 g/m*3 13.4 C 0 km/h
111 23-04-2010 22:09:02 13.1 C 2.62 g/m*3 13.1 C 0 km/h
112 23-04-2010 22:21:03 12.8 C 2.91 g/m*3 12.8 C 0 km/h
113 23-04-2010 22:33:02 12.6 C 2.88 g/m*3 12.6 C 0 km/h
114 23-04-2010 22:46:04 12.4 C 2.84 g/m*3 12.4 C 0 km/h
115 23-04-2010 22:58:04 12.1 C 3.22 g/m*3 12.1 C 0 km/h
116 23-04-2010 23:10:04 11.7 C 3.24 g/m*3 11.7 C 0 km/h
117 23-04-2010 23:22:04 11.2 C 3.34 g/m*3 11.2 C 0 km/h
118 23-04-2010 23:34:04 10.7 C 3.44 g/m*3 10.7 C 0 km/h
119 23-04-2010 23:46:04 10.5 C 3.39 g/m*3 10.5 C 0 km/h
120 23-04-2010 23:58:04 10.2 C 3.43 g/m*3 10.2 C 0 km/h
121 24-04-2010 00:10:04 10 C 3.38 g/m*3 10 C 0 km/h
122 24-04-2010 00:22:04 9.6 C 3.48 g/m*3 9.6 C 0 km/h
123 24-04-2010 00:34:04 9.5 C 3.46 g/m*3 9.5 C 0 km/h
124 24-04-2010 00:46:04 9.4 C 3.53 g/m*3 9.4 C 0 km/h
125 24-04-2010 00:58:04 9 C 3.7 g/m*3 9 C 0 km/h
Sensor: Nr:Datum:Temp:Abs-Feuchte:Windchill:Wind:
Aussen-T/F 126 24-04-2010 01:10:05 8.6 C 3.52 g/m*3 8.6 C 0 km/h
127 24-04-2010 01:22:05 8.5 C 3.5 g/m*3 8.5 C 0 km/h
128 24-04-2010 01:34:05 8.4 C 3.56 g/m*3 8.4 C 0 km/h
129 24-04-2010 01:46:05 8.1 C 3.58 g/m*3 8.1 C 0 km/h
130 24-04-2010 01:58:05 7.9 C 3.61 g/m*3 7.9 C 0 km/h
131 24-04-2010 02:10:05 7.6 C 3.63 g/m*3 7.6 C 0 km/h
132 24-04-2010 02:22:05 7.2 C 3.61 g/m*3 7.2 C 0 km/h
133 24-04-2010 02:34:05 7.1 C 3.59 g/m*3 7.1 C 0 km/h
134 24-04-2010 02:46:05 6.9 C 3.62 g/m*3 6.9 C 0 km/h
135 24-04-2010 02:58:05 6.7 C 3.65 g/m*3 6.7 C 0 km/h
136 24-04-2010 03:10:05 6.6 C 3.62 g/m*3 6.6 C 0 km/h
137 24-04-2010 03:22:05 6.6 C 3.7 g/m*3 6.6 C 0 km/h
138 24-04-2010 03:34:05 6.2 C 3.6 g/m*3 6.2 C 0 km/h
139 24-04-2010 03:46:05 5.9 C 3.68 g/m*3 5.9 C 0 km/h
140 24-04-2010 03:58:05 5.7 C 3.63 g/m*3 5.7 C 0 km/h
141 24-04-2010 04:10:05 5.6 C 3.68 g/m*3 5.6 C 0 km/h
142 24-04-2010 04:22:05 5.4 C 3.7 g/m*3 5.4 C 0 km/h
143 24-04-2010 04:34:05 5.1 C 3.76 g/m*3 5.1 C 0 km/h
144 24-04-2010 04:46:05 5 C 3.74 g/m*3 5 C 0 km/h
145 24-04-2010 04:58:05 4.8 C 3.82 g/m*3 4.8 C 0 km/h
146 24-04-2010 05:10:05 4.6 C 3.77 g/m*3 4.6 C 0 km/h
147 24-04-2010 05:22:06 4.5 C 3.88 g/m*3 4.5 C 0 km/h
148 24-04-2010 05:34:06 4.4 C 3.85 g/m*3 4.4 C 0 km/h
149 24-04-2010 05:46:06 4.1 C 3.84 g/m*3 4.1 C 0 km/h
150 24-04-2010 05:58:06 4 C 3.88 g/m*3 4 C 0 km/h
Sensor: Nr:Datum:Temp:Abs-Feuchte:Windchill:Wind:
Aussen-T/F 151 24-04-2010 06:10:06 3.9 C 3.85 g/m*3 3.9 C 0 km/h
152 24-04-2010 06:22:06 3.7 C 3.86 g/m*3 3.7 C 0 km/h
153 24-04-2010 06:34:06 3.6 C 3.96 g/m*3 3.6 C 0 km/h
154 24-04-2010 06:46:06 3.5 C 4 g/m*3 3.5 C 0 km/h
155 24-04-2010 06:58:06 3.5 C 4 g/m*3 3.5 C 0 km/h
156 24-04-2010 07:10:06 3.6 C 3.96 g/m*3 3.6 C 0 km/h
157 24-04-2010 07:22:06 3.6 C 3.96 g/m*3 3.6 C 0 km/h
158 24-04-2010 07:34:03 3.7 C 4.05 g/m*3 3.7 C 0 km/h
159 24-04-2010 07:46:02 3.9 C 4.11 g/m*3 3.9 C 0 km/h
160 24-04-2010 07:58:02 4.1 C 4.1 g/m*3 4.1 C 0 km/h
161 24-04-2010 08:10:01 4.3 C 4.15 g/m*3 4.3 C 0 km/h
162 24-04-2010 08:22:02 4.5 C 4.14 g/m*3 4.5 C 0 km/h
163 24-04-2010 08:34:01 4.8 C 4.16 g/m*3 4.8 C 0 km/h
164 24-04-2010 08:46:02 5.2 C 4.06 g/m*3 5.2 C 0 km/h
165 24-04-2010 08:58:02 5.4 C 4.05 g/m*3 5.4 C 0 km/h
166 24-04-2010 09:10:02 6.1 C 4.24 g/m*3 6.1 C 0 km/h
167 24-04-2010 09:22:02 7 C 4.26 g/m*3 7 C 0 km/h
168 24-04-2010 09:34:03 7.7 C 4.3 g/m*3 7.7 C 0 km/h
169 24-04-2010 09:46:02 8.4 C 4.16 g/m*3 8.4 C 0 km/h
170 24-04-2010 09:58:03 9.2 C 4.11 g/m*3 9.2 C 0 km/h
171 24-04-2010 10:10:01 10 C 4.13 g/m*3 10 C 0 km/h
172 24-04-2010 10:22:02 10.5 C 4.07 g/m*3 10.5 C 0 km/h
173 24-04-2010 10:34:02 11.3 C 4.28 g/m*3 11.3 C 0 km/h
174 24-04-2010 10:46:02 12.1 C 4.29 g/m*3 12.1 C 0 km/h
175 24-04-2010 10:58:03 13.1 C 4.11 g/m*3 13.1 C 0 km/h
Sensor: Nr:Datum:Temp:Abs-Feuchte:Windchill:Wind:
Aussen-T/F 176 24-04-2010 11:10:02 13.8 C 4.05 g/m*3 13.8 C 0 km/h
177 24-04-2010 11:22:02 14.5 C 3.98 g/m*3 14.5 C 0 km/h
178 24-04-2010 11:34:03 15.1 C 3.87 g/m*3 15.1 C 0 km/h
179 24-04-2010 11:46:02 16 C 3.68 g/m*3 16 C 0 km/h
180 24-04-2010 11:58:03 16.8 C 3.86 g/m*3 16.8 C 0 km/h
181 24-04-2010 12:10:01 17.6 C 3.75 g/m*3 17.6 C 0 km/h
182 24-04-2010 12:22:02 18.4 C 3.15 g/m*3 18.4 C 0 km/h
183 24-04-2010 12:34:02 19 C 3.75 g/m*3 19 C 0 km/h
184 24-04-2010 12:46:02 19.6 C 3.38 g/m*3 19.6 C 0 km/h
185 24-04-2010 12:58:02 19.7 C 3.4 g/m*3 19.7 C 0 km/h
186 24-04-2010 13:10:02 20.5 C 3.56 g/m*3 20.5 C 0 km/h
187 24-04-2010 13:22:02 21.6 C 3.79 g/m*3 21.6 C 0 km/h
188 24-04-2010 13:34:03 22.3 C 3.95 g/m*3 22.3 C 0 km/h
189 24-04-2010 13:46:02 22.6 C 4.02 g/m*3 22.6 C 0 km/h
190 24-04-2010 13:58:03 22.9 C 4.09 g/m*3 22.9 C 0 km/h
191 24-04-2010 14:10:01 23.2 C 4.16 g/m*3 23.2 C 0 km/h
192 24-04-2010 14:22:02 22.9 C 4.09 g/m*3 22.9 C 0 km/h
193 24-04-2010 14:34:02 23.6 C 4.25 g/m*3 23.6 C 0 km/h
194 24-04-2010 14:46:01 24.6 C 4.5 g/m*3 24.6 C 0 km/h
195 24-04-2010 14:58:01 25.3 C 4.68 g/m*3 25.3 C 0 km/h
196 24-04-2010 15:10:01 25.8 C 4.82 g/m*3 25.8 C 0 km/h
197 24-04-2010 15:22:01 24.7 C 4.53 g/m*3 24.7 C 0 km/h
198 24-04-2010 15:34:02 25.6 C 4.76 g/m*3 25.6 C 0 km/h
199 24-04-2010 15:46:02 25.6 C 4.76 g/m*3 25.6 C 0 km/h
200 24-04-2010 15:58:02 26.4 C 4.98 g/m*3 26.4 C 0 km/h
Sensor: Nr:Datum:Temp:Abs-Feuchte:Windchill:Wind:
Aussen-T/F 201 24-04-2010 16:10:01 27.3 C 5.23 g/m*3 27.3 C 0 km/h
202 24-04-2010 16:22:02 27.9 C 5.41 g/m*3 27.9 C 0 km/h
203 24-04-2010 16:34:02 27.7 C 5.35 g/m*3 27.7 C 0 km/h
204 24-04-2010 16:46:01 28.5 C 5.59 g/m*3 28.5 C 0 km/h
205 24-04-2010 16:58:01 28.9 C 5.71 g/m*3 28.9 C 0 km/h
206 24-04-2010 17:10:01 28.9 C 5.71 g/m*3 28.9 C 0 km/h
207 24-04-2010 17:22:01 27.3 C 5.23 g/m*3 27.3 C 0 km/h
208 24-04-2010 17:34:02 28.3 C 5.53 g/m*3 28.3 C 0 km/h
209 24-04-2010 17:46:01 29 C 5.74 g/m*3 29 C 0 km/h
210 24-04-2010 17:58:01 28.8 C 5.68 g/m*3 28.8 C 0 km/h
211 24-04-2010 18:10:02 28.7 C 5.65 g/m*3 28.7 C 0 km/h
212 24-04-2010 18:22:01 28.2 C 5.5 g/m*3 28.2 C 0 km/h
213 24-04-2010 18:34:02 26.9 C 5.12 g/m*3 26.9 C 0 km/h
214 24-04-2010 18:46:01 27.5 C 5.29 g/m*3 27.5 C 0 km/h
215 24-04-2010 18:58:01 27.7 C 5.35 g/m*3 27.7 C 0 km/h
216 24-04-2010 19:10:02 27.2 C 5.2 g/m*3 27.2 C 0 km/h
217 24-04-2010 19:22:01 26.8 C 5.09 g/m*3 26.8 C 0 km/h
218 24-04-2010 19:34:02 26.3 C 4.95 g/m*3 26.3 C 0 km/h
219 24-04-2010 19:46:02 25.9 C 4.84 g/m*3 25.9 C 0 km/h
220 24-04-2010 19:58:02 25.4 C 4.71 g/m*3 25.4 C 0 km/h
221 24-04-2010 20:10:02 24.3 C 4.43 g/m*3 24.3 C 0 km/h
222 24-04-2010 20:22:02 22.9 C 4.09 g/m*3 22.9 C 0 km/h
223 24-04-2010 20:34:02 21 C 3.66 g/m*3 21 C 0 km/h
224 24-04-2010 20:46:02 20 C 3.46 g/m*3 20 C 0 km/h
225 24-04-2010 20:58:02 19.4 C 3.34 g/m*3 19.4 C 0 km/h
Sensor: Nr:Datum:Temp:Abs-Feuchte:Windchill:Wind:
Aussen-T/F 226 24-04-2010 21:10:02 19.2 C 3.3 g/m*3 19.2 C 0 km/h
227 24-04-2010 21:22:02 18.4 C 3.15 g/m*3 18.4 C 0 km/h
228 24-04-2010 21:34:02 18 C 3.07 g/m*3 18 C 0 km/h
229 24-04-2010 21:46:02 17.5 C 2.98 g/m*3 17.5 C 0 km/h
230 24-04-2010 21:58:02 16.8 C 2.86 g/m*3 16.8 C 0 km/h
231 24-04-2010 22:10:02 16.6 C 2.83 g/m*3 16.6 C 0 km/h
232 24-04-2010 22:22:03 16.5 C 2.95 g/m*3 16.5 C 0 km/h
233 24-04-2010 22:34:02 16.2 C 3.17 g/m*3 16.2 C 0 km/h
234 24-04-2010 22:47:03 15.8 C 3.37 g/m*3 15.8 C 0 km/h
235 24-04-2010 22:59:03 15.3 C 3.4 g/m*3 15.3 C 0 km/h
236 24-04-2010 23:11:03 14.8 C 3.55 g/m*3 14.8 C 0 km/h
237 24-04-2010 23:23:03 14.6 C 3.75 g/m*3 14.6 C 0 km/h
238 24-04-2010 23:35:03 14.1 C 3.76 g/m*3 14.1 C 0 km/h
239 24-04-2010 23:47:03 13.6 C 3.77 g/m*3 13.6 C 0 km/h
240 24-04-2010 23:59:04 13.4 C 3.84 g/m*3 13.4 C 0 km/h
241 25-04-2010 00:11:04 13.1 C 3.88 g/m*3 13.1 C 0 km/h
242 25-04-2010 00:23:04 12.8 C 3.92 g/m*3 12.8 C 0 km/h
243 25-04-2010 00:35:04 12.7 C 4.01 g/m*3 12.7 C 0 km/h
244 25-04-2010 00:47:04 12.2 C 3.99 g/m*3 12.2 C 0 km/h
245 25-04-2010 00:59:04 12.1 C 4.18 g/m*3 12.1 C 0 km/h
246 25-04-2010 01:11:04 11.8 C 4.32 g/m*3 11.8 C 0 km/h
247 25-04-2010 01:23:04 11.4 C 4.21 g/m*3 11.4 C 0 km/h
248 25-04-2010 01:35:04 11.1 C 4.13 g/m*3 11.1 C 0 km/h
249 25-04-2010 01:47:04 11 C 4.2 g/m*3 11 C 0 km/h
250 25-04-2010 01:59:04 10.7 C 4.42 g/m*3 10.7 C 0 km/h
Sensor: Nr:Datum:Temp:Abs-Feuchte:Windchill:Wind:
Aussen-T/F 251 25-04-2010 02:11:04 10.5 C 4.27 g/m*3 10.5 C 0 km/h
252 25-04-2010 02:23:04 10.4 C 4.34 g/m*3 10.4 C 0 km/h
253 25-04-2010 02:35:04 10.1 C 4.26 g/m*3 10.1 C 0 km/h
254 25-04-2010 02:47:04 9.9 C 4.2 g/m*3 9.9 C 0 km/h
255 25-04-2010 02:59:04 9.7 C 4.24 g/m*3 9.7 C 0 km/h
256 25-04-2010 03:11:04 9.3 C 4.22 g/m*3 9.3 C 0 km/h
257 25-04-2010 03:23:04 9.1 C 4.26 g/m*3 9.1 C 0 km/h
258 25-04-2010 03:35:04 9 C 4.23 g/m*3 9 C 0 km/h
259 25-04-2010 03:47:04 8.7 C 4.32 g/m*3 8.7 C 0 km/h
260 25-04-2010 03:59:05 8.5 C 4.44 g/m*3 8.5 C 0 km/h
261 25-04-2010 04:11:05 8 C 4.55 g/m*3 8 C 0 km/h
262 25-04-2010 04:23:05 8 C 4.55 g/m*3 8 C 0 km/h
263 25-04-2010 04:35:05 7.8 C 4.49 g/m*3 7.8 C 0 km/h
264 25-04-2010 04:47:05 7.7 C 4.54 g/m*3 7.7 C 0 km/h
265 25-04-2010 04:59:05 7.6 C 4.51 g/m*3 7.6 C 0 km/h
266 25-04-2010 05:11:05 7.5 C 4.48 g/m*3 7.5 C 0 km/h
267 25-04-2010 05:23:05 7.2 C 4.4 g/m*3 7.2 C 0 km/h
268 25-04-2010 05:35:05 7 C 4.49 g/m*3 7 C 0 km/h
269 25-04-2010 05:47:05 6.8 C 4.59 g/m*3 6.8 C 0 km/h
270 25-04-2010 05:59:05 6.7 C 4.56 g/m*3 6.7 C 0 km/h
271 25-04-2010 06:11:05 6.4 C 4.55 g/m*3 6.4 C 0 km/h
272 25-04-2010 06:23:05 6.3 C 4.59 g/m*3 6.3 C 0 km/h
273 25-04-2010 06:35:05 6.2 C 4.63 g/m*3 6.2 C 0 km/h
274 25-04-2010 06:47:05 6.2 C 4.63 g/m*3 6.2 C 0 km/h
275 25-04-2010 06:59:05 6.2 C 4.63 g/m*3 6.2 C 0 km/h
Sensor: Nr:Datum:Temp:Abs-Feuchte:Windchill:Wind:
Aussen-T/F 276 25-04-2010 07:11:04 6.2 C 4.63 g/m*3 6.2 C 0 km/h
277 25-04-2010 07:23:03 6.3 C 4.74 g/m*3 6.3 C 0 km/h
278 25-04-2010 07:35:03 6.5 C 4.8 g/m*3 6.5 C 0 km/h
279 25-04-2010 07:47:02 6.6 C 4.91 g/m*3 6.6 C 0 km/h
280 25-04-2010 07:59:02 6.7 C 4.86 g/m*3 6.7 C 0 km/h
281 25-04-2010 08:11:01 7 C 4.88 g/m*3 7 C 0 km/h
282 25-04-2010 08:23:02 7.3 C 4.9 g/m*3 7.3 C 0 km/h
283 25-04-2010 08:35:01 7.7 C 4.95 g/m*3 7.7 C 0 km/h
284 25-04-2010 08:47:01 8.1 C 4.99 g/m*3 8.1 C 0 km/h
285 25-04-2010 08:59:01 8.5 C 4.95 g/m*3 8.5 C 0 km/h
286 25-04-2010 09:11:02 9 C 4.94 g/m*3 9 C 0 km/h
287 25-04-2010 09:23:02 9.6 C 4.86 g/m*3 9.6 C 0 km/h
288 25-04-2010 09:35:01 10.4 C 5.01 g/m*3 10.4 C 0 km/h
289 25-04-2010 09:47:02 11.3 C 5.2 g/m*3 11.3 C 0 km/h
290 25-04-2010 09:59:02 12.2 C 5.18 g/m*3 12.2 C 0 km/h
291 25-04-2010 10:11:01 13.6 C 5.3 g/m*3 13.6 C 0 km/h
292 25-04-2010 10:23:02 14.8 C 5.32 g/m*3 14.8 C 0 km/h
293 25-04-2010 10:35:01 15.9 C 5.28 g/m*3 15.9 C 0 km/h
294 25-04-2010 10:47:03 16.7 C 5.4 g/m*3 16.7 C 0 km/h
295 25-04-2010 10:59:03 17.4 C 5.34 g/m*3 17.4 C 0 km/h
296 25-04-2010 11:11:02 18.8 C 5.31 g/m*3 18.8 C 0 km/h
297 25-04-2010 11:23:02 19.8 C 4.27 g/m*3 19.8 C 0 km/h
298 25-04-2010 11:35:02 20.8 C 3.62 g/m*3 20.8 C 0 km/h
299 25-04-2010 11:47:02 21.2 C 3.71 g/m*3 21.2 C 0 km/h
300 25-04-2010 11:59:02 21.7 C 3.82 g/m*3 21.7 C 0 km/h
Sensor: Nr:Datum:Temp:Abs-Feuchte:Windchill:Wind:
Aussen-T/F 301 25-04-2010 12:11:02 22.1 C 3.9 g/m*3 22.1 C 0 km/h
302 25-04-2010 12:23:02 22.5 C 3.99 g/m*3 22.5 C 0 km/h
303 25-04-2010 12:35:02 22.5 C 3.99 g/m*3 22.5 C 0 km/h
304 25-04-2010 12:47:02 22.9 C 4.09 g/m*3 22.9 C 0 km/h
305 25-04-2010 12:59:02 24 C 4.35 g/m*3 24 C 0 km/h
306 25-04-2010 13:11:01 24.4 C 4.45 g/m*3 24.4 C 0 km/h
307 25-04-2010 13:23:02 24.9 C 4.58 g/m*3 24.9 C 0 km/h
308 25-04-2010 13:35:01 24.8 C 4.55 g/m*3 24.8 C 0 km/h
309 25-04-2010 13:47:02 25.2 C 4.66 g/m*3 25.2 C 0 km/h
310 25-04-2010 13:59:02 25.3 C 4.68 g/m*3 25.3 C 0 km/h
311 25-04-2010 14:11:01 25.9 C 4.84 g/m*3 25.9 C 0 km/h
312 25-04-2010 14:23:01 25.8 C 4.82 g/m*3 25.8 C 0 km/h
313 25-04-2010 14:35:01 26.8 C 5.09 g/m*3 26.8 C 0 km/h
314 25-04-2010 14:47:02 26.8 C 5.09 g/m*3 26.8 C 0 km/h
315 25-04-2010 14:59:02 27.4 C 5.26 g/m*3 27.4 C 0 km/h
316 25-04-2010 15:11:02 28.1 C 5.47 g/m*3 28.1 C 0 km/h
317 25-04-2010 15:23:02 27.8 C 5.38 g/m*3 27.8 C 0 km/h
318 25-04-2010 15:35:02 28.7 C 5.65 g/m*3 28.7 C 0 km/h
319 25-04-2010 15:47:02 28.1 C 5.47 g/m*3 28.1 C 0 km/h
320 25-04-2010 15:59:03 28.5 C 5.59 g/m*3 28.5 C 0 km/h
321 25-04-2010 16:11:01 29.1 C 5.78 g/m*3 29.1 C 0 km/h
322 25-04-2010 16:23:01 28.5 C 5.59 g/m*3 28.5 C 0 km/h
323 25-04-2010 16:35:02 28.5 C 5.59 g/m*3 28.5 C 0 km/h
324 25-04-2010 16:47:02 29.9 C 6.03 g/m*3 29.9 C 0 km/h
325 25-04-2010 16:59:03 30.2 C 6.13 g/m*3 30.2 C 0 km/h
Sensor: Nr:Datum:Temp:Abs-Feuchte:Windchill:Wind:
Aussen-T/F 326 25-04-2010 17:11:02 29.5 C 5.9 g/m*3 29.5 C 0 km/h
327 25-04-2010 17:23:02 27.5 C 5.29 g/m*3 27.5 C 0 km/h
328 25-04-2010 17:35:02 26.4 C 4.98 g/m*3 26.4 C 0 km/h
329 25-04-2010 17:47:02 25.9 C 4.84 g/m*3 25.9 C 0 km/h
330 25-04-2010 17:59:02 25.7 C 4.79 g/m*3 25.7 C 0 km/h
331 25-04-2010 18:11:01 25.6 C 4.76 g/m*3 25.6 C 0 km/h
332 25-04-2010 18:23:01 26 C 4.87 g/m*3 26 C 0 km/h
333 25-04-2010 18:35:02 26.4 C 4.98 g/m*3 26.4 C 0 km/h
334 25-04-2010 18:47:02 26.5 C 5.01 g/m*3 26.5 C 0 km/h
335 25-04-2010 18:59:02 25.3 C 4.68 g/m*3 25.3 C 0 km/h
336 25-04-2010 19:11:01 24.7 C 4.53 g/m*3 24.7 C 0 km/h
337 25-04-2010 19:23:02 24.4 C 4.45 g/m*3 24.4 C 0 km/h
338 25-04-2010 19:35:02 24.1 C 4.38 g/m*3 24.1 C 0 km/h
339 25-04-2010 19:47:02 23.4 C 4.21 g/m*3 23.4 C 0 km/h
340 25-04-2010 19:59:02 22.9 C 4.09 g/m*3 22.9 C 0 km/h
341 25-04-2010 20:11:01 22.3 C 3.95 g/m*3 22.3 C 0 km/h
342 25-04-2010 20:23:02 21.6 C 3.98 g/m*3 21.6 C 0 km/h
343 25-04-2010 20:35:01 21 C 3.85 g/m*3 21 C 0 km/h
344 25-04-2010 20:47:03 20.5 C 4.09 g/m*3 20.5 C 0 km/h
345 25-04-2010 20:59:03 20.2 C 4.37 g/m*3 20.2 C 0 km/h
346 25-04-2010 21:11:02 19.9 C 4.3 g/m*3 19.9 C 0 km/h
347 25-04-2010 21:23:02 19.5 C 4.36 g/m*3 19.5 C 0 km/h
348 25-04-2010 21:35:02 19.2 C 4.45 g/m*3 19.2 C 0 km/h
349 25-04-2010 21:47:02 19.1 C 4.75 g/m*3 19.1 C 0 km/h
350 25-04-2010 21:59:02 19.1 C 4.59 g/m*3 19.1 C 0 km/h
Sensor: Nr:Datum:Temp:Abs-Feuchte:Windchill:Wind:
Aussen-T/F 351 25-04-2010 22:11:02 19 C 4.73 g/m*3 19 C 0 km/h
352 25-04-2010 22:23:02 18.8 C 4.83 g/m*3 18.8 C 0 km/h
353 25-04-2010 22:35:02 18.5 C 5.06 g/m*3 18.5 C 0 km/h
354 25-04-2010 22:47:02 18.5 C 4.9 g/m*3 18.5 C 0 km/h
355 25-04-2010 22:59:02 18 C 5.07 g/m*3 18 C 0 km/h
356 25-04-2010 23:11:02 18.6 C 5.41 g/m*3 18.6 C 0 km/h
357 25-04-2010 23:23:02 18.6 C 5.73 g/m*3 18.6 C 0 km/h
358 25-04-2010 23:35:02 18.2 C 5.75 g/m*3 18.2 C 0 km/h
359 25-04-2010 23:47:02 18 C 5.99 g/m*3 18 C 0 km/h
360 25-04-2010 23:59:02 17.5 C 5.96 g/m*3 17.5 C 0 km/h
361 26-04-2010 00:11:02 17.3 C 6.04 g/m*3 17.3 C 0 km/h
362 26-04-2010 00:23:02 17 C 6.22 g/m*3 17 C 0 km/h
363 26-04-2010 00:35:02 17.2 C 6 g/m*3 17.2 C 0 km/h
364 26-04-2010 00:47:02 17.1 C 5.82 g/m*3 17.1 C 0 km/h
365 26-04-2010 00:59:03 16.9 C 5.75 g/m*3 16.9 C 0 km/h
366 26-04-2010 01:11:03 16.7 C 5.83 g/m*3 16.7 C 0 km/h
367 26-04-2010 01:23:03 16.4 C 5.86 g/m*3 16.4 C 0 km/h
368 26-04-2010 01:35:03 16.1 C 6.03 g/m*3 16.1 C 0 km/h
369 26-04-2010 01:47:03 15.9 C 6.09 g/m*3 15.9 C 0 km/h
370 26-04-2010 01:59:03 16 C 6.13 g/m*3 16 C 0 km/h
371 26-04-2010 02:11:03 14.6 C 7.38 g/m*3 14.6 C 0 km/h
372 26-04-2010 02:23:03 13.3 C 8.43 g/m*3 13.3 C 0 km/h
373 26-04-2010 02:35:03 13 C 8.96 g/m*3 13 C 0 km/h
374 26-04-2010 02:47:03 12.5 C 9.02 g/m*3 12.5 C 0 km/h
375 26-04-2010 02:59:03 12.7 C 9.24 g/m*3 12.7 C 0 km/h
Sensor: Nr:Datum:Temp:Abs-Feuchte:Windchill:Wind:
Aussen-T/F 376 26-04-2010 03:11:03 12.4 C 9.07 g/m*3 12.4 C 0 km/h
377 26-04-2010 03:23:03 12.6 C 9.18 g/m*3 12.6 C 0 km/h
378 26-04-2010 03:35:03 12.7 C 9.13 g/m*3 12.7 C 0 km/h
379 26-04-2010 03:47:03 12.8 C 8.96 g/m*3 12.8 C 0 km/h
380 26-04-2010 03:59:03 12.7 C 8.79 g/m*3 12.7 C 0 km/h
381 26-04-2010 04:11:03 12.4 C 8.63 g/m*3 12.4 C 0 km/h
382 26-04-2010 04:23:03 12.3 C 8.58 g/m*3 12.3 C 0 km/h
383 26-04-2010 04:35:03 12.2 C 8.52 g/m*3 12.2 C 0 km/h
384 26-04-2010 04:47:03 12.2 C 8.52 g/m*3 12.2 C 0 km/h
385 26-04-2010 04:59:04 12.2 C 8.52 g/m*3 12.2 C 0 km/h
386 26-04-2010 05:11:04 11.8 C 8.42 g/m*3 11.8 C 0 km/h
387 26-04-2010 05:23:04 11.6 C 8.42 g/m*3 11.6 C 0 km/h
388 26-04-2010 05:35:04 11.5 C 8.37 g/m*3 11.5 C 0 km/h
389 26-04-2010 05:47:04 11.6 C 8.52 g/m*3 11.6 C 0 km/h
390 26-04-2010 05:59:04 11.2 C 8.31 g/m*3 11.2 C 0 km/h
391 26-04-2010 06:11:04 11.1 C 8.36 g/m*3 11.1 C 0 km/h
392 26-04-2010 06:23:04 11 C 8.31 g/m*3 11 C 0 km/h
393 26-04-2010 06:35:04 10.8 C 8.2 g/m*3 10.8 C 0 km/h
394 26-04-2010 06:47:01 10.7 C 8.15 g/m*3 10.7 C 0 km/h
395 26-04-2010 06:59:01 10.7 C 8.25 g/m*3 10.7 C 0 km/h
396 26-04-2010 07:11:01 11.1 C 8.36 g/m*3 11.1 C 0 km/h
397 26-04-2010 07:23:02 10.9 C 8.16 g/m*3 10.9 C 0 km/h
398 26-04-2010 07:35:01 10.8 C 8.11 g/m*3 10.8 C 0 km/h
399 26-04-2010 07:47:02 10.7 C 8.15 g/m*3 10.7 C 0 km/h
400 26-04-2010 07:59:02 11.2 C 8.41 g/m*3 11.2 C 0 km/h
Sensor: Nr:Datum:Temp:Abs-Feuchte:Windchill:Wind:
Aussen-T/F 401 26-04-2010 08:11:01 11.2 C 8.31 g/m*3 11.2 C 0 km/h
402 26-04-2010 08:23:01 11.5 C 8.47 g/m*3 11.5 C 0 km/h
403 26-04-2010 08:35:02 12 C 8.42 g/m*3 12 C 0 km/h
404 26-04-2010 08:47:01 12.4 C 8.19 g/m*3 12.4 C 0 km/h
405 26-04-2010 08:59:01 12.7 C 7.9 g/m*3 12.7 C 0 km/h
406 26-04-2010 09:11:01 12.4 C 7.32 g/m*3 12.4 C 0 km/h
407 26-04-2010 09:23:01 12.8 C 7.39 g/m*3 12.8 C 0 km/h
408 26-04-2010 09:35:02 13.1 C 7.19 g/m*3 13.1 C 0 km/h
409 26-04-2010 09:47:01 13.2 C 7.12 g/m*3 13.2 C 0 km/h
410 26-04-2010 09:59:01 13.3 C 6.82 g/m*3 13.3 C 0 km/h
411 26-04-2010 10:11:02 13.7 C 7.34 g/m*3 13.7 C 0 km/h
412 26-04-2010 10:23:01 14.3 C 7 g/m*3 14.3 C 0 km/h
413 26-04-2010 10:35:02 14.9 C 7.01 g/m*3 14.9 C 0 km/h
414 26-04-2010 10:47:01 15 C 6.8 g/m*3 15 C 0 km/h
415 26-04-2010 10:59:01 15.2 C 6.75 g/m*3 15.2 C 0 km/h
416 26-04-2010 11:11:01 15.5 C 6.74 g/m*3 15.5 C 0 km/h
417 26-04-2010 11:23:01 15.8 C 6.87 g/m*3 15.8 C 0 km/h
418 26-04-2010 11:35:02 16 C 6.54 g/m*3 16 C 0 km/h
419 26-04-2010 11:47:01 16.1 C 6.44 g/m*3 16.1 C 0 km/h
420 26-04-2010 11:59:01 16.2 C 6.48 g/m*3 16.2 C 0 km/h
421 26-04-2010 12:11:02 16.5 C 6.46 g/m*3 16.5 C 0 km/h
422 26-04-2010 12:23:01 17.8 C 6.98 g/m*3 17.8 C 0 km/h
423 26-04-2010 12:35:02 18 C 6.14 g/m*3 18 C 0 km/h
424 26-04-2010 12:47:01 17.7 C 6.34 g/m*3 17.7 C 0 km/h
425 26-04-2010 12:59:01 17.7 C 6.49 g/m*3 17.7 C 0 km/h
Sensor: Nr:Datum:Temp:Abs-Feuchte:Windchill:Wind:
Aussen-T/F 426 26-04-2010 13:11:02 18.1 C 6.49 g/m*3 18.1 C 0 km/h
427 26-04-2010 13:23:01 19.1 C 6.56 g/m*3 19.1 C 0 km/h
428 26-04-2010 13:35:02 20.2 C 6.29 g/m*3 20.2 C 0 km/h
429 26-04-2010 13:47:01 19.5 C 6.04 g/m*3 19.5 C 0 km/h
430 26-04-2010 13:59:01 18.1 C 6.18 g/m*3 18.1 C 0 km/h
431 26-04-2010 14:11:02 18.3 C 6.41 g/m*3 18.3 C 0 km/h
432 26-04-2010 14:23:01 19.4 C 6.51 g/m*3 19.4 C 0 km/h
433 26-04-2010 14:35:02 20 C 6.05 g/m*3 20 C 0 km/h
434 26-04-2010 14:47:01 20.5 C 6.23 g/m*3 20.5 C 0 km/h
435 26-04-2010 14:59:01 19.1 C 6.07 g/m*3 19.1 C 0 km/h
436 26-04-2010 15:11:02 19.2 C 6.1 g/m*3 19.2 C 0 km/h
437 26-04-2010 15:23:01 19.4 C 6.01 g/m*3 19.4 C 0 km/h
438 26-04-2010 15:35:01 19.5 C 5.87 g/m*3 19.5 C 0 km/h
439 26-04-2010 15:47:01 19.4 C 5.84 g/m*3 19.4 C 0 km/h
440 26-04-2010 15:59:01 18.4 C 5.35 g/m*3 18.4 C 0 km/h
441 26-04-2010 16:11:02 20.2 C 5.6 g/m*3 20.2 C 0 km/h
442 26-04-2010 16:23:01 19.8 C 5.3 g/m*3 19.8 C 0 km/h
443 26-04-2010 16:35:01 19.3 C 5.31 g/m*3 19.3 C 0 km/h
444 26-04-2010 16:47:01 19.6 C 5.4 g/m*3 19.6 C 0 km/h
445 26-04-2010 16:59:01 19.5 C 5.37 g/m*3 19.5 C 0 km/h
446 26-04-2010 17:11:02 21.2 C 5.37 g/m*3 21.2 C 0 km/h
447 26-04-2010 17:23:01 22.3 C 5.13 g/m*3 22.3 C 0 km/h
448 26-04-2010 17:35:01 21.5 C 5.09 g/m*3 21.5 C 0 km/h
449 26-04-2010 17:47:01 20.1 C 5.04 g/m*3 20.1 C 0 km/h
450 26-04-2010 17:59:01 19.3 C 5.31 g/m*3 19.3 C 0 km/h
Sensor: Nr:Datum:Temp:Abs-Feuchte:Windchill:Wind:
Aussen-T/F 451 26-04-2010 18:11:02 19.1 C 5.57 g/m*3 19.1 C 0 km/h
452 26-04-2010 18:23:01 19 C 5.54 g/m*3 19 C 0 km/h
453 26-04-2010 18:35:01 18.9 C 5.51 g/m*3 18.9 C 0 km/h
454 26-04-2010 18:47:01 19.7 C 5.6 g/m*3 19.7 C 0 km/h
455 26-04-2010 18:59:01 20.2 C 5.25 g/m*3 20.2 C 0 km/h
456 26-04-2010 19:11:02 19.5 C 5.37 g/m*3 19.5 C 0 km/h
457 26-04-2010 19:23:01 18.7 C 5.44 g/m*3 18.7 C 0 km/h
458 26-04-2010 19:35:01 18.3 C 5.63 g/m*3 18.3 C 0 km/h
459 26-04-2010 19:47:01 18.2 C 5.44 g/m*3 18.2 C 0 km/h
460 26-04-2010 19:59:01 18.5 C 5.7 g/m*3 18.5 C 0 km/h
461 26-04-2010 20:11:01 18.8 C 5.64 g/m*3 18.8 C 0 km/h
462 26-04-2010 20:23:01 18.1 C 5.56 g/m*3 18.1 C 0 km/h
463 26-04-2010 20:35:01 17.1 C 5.39 g/m*3 17.1 C 0 km/h
464 26-04-2010 20:47:01 16.7 C 5.68 g/m*3 16.7 C 0 km/h
465 26-04-2010 20:59:01 16.2 C 5.52 g/m*3 16.2 C 0 km/h
466 26-04-2010 21:11:01 16.1 C 5.35 g/m*3 16.1 C 0 km/h
467 26-04-2010 21:23:01 15.9 C 5.55 g/m*3 15.9 C 0 km/h
468 26-04-2010 21:35:01 15.8 C 5.52 g/m*3 15.8 C 0 km/h
469 26-04-2010 21:47:01 15.8 C 5.65 g/m*3 15.8 C 0 km/h
470 26-04-2010 21:59:01 15.7 C 5.62 g/m*3 15.7 C 0 km/h
471 26-04-2010 22:11:02 15.6 C 5.72 g/m*3 15.6 C 0 km/h
472 26-04-2010 22:23:01 15.4 C 5.78 g/m*3 15.4 C 0 km/h
473 26-04-2010 22:35:02 15.4 C 5.65 g/m*3 15.4 C 0 km/h
474 26-04-2010 22:49:05 15.2 C 5.71 g/m*3 15.2 C 0 km/h
475 26-04-2010 23:01:05 15.2 C 5.84 g/m*3 15.2 C 0 km/h
Sensor: Nr:Datum:Temp:Abs-Feuchte:Windchill:Wind:
Aussen-T/F 476 26-04-2010 23:13:05 15.1 C 5.81 g/m*3 15.1 C 0 km/h
477 26-04-2010 23:25:05 14.6 C 6.01 g/m*3 14.6 C 0 km/h
478 26-04-2010 23:37:05 14.2 C 5.98 g/m*3 14.2 C 0 km/h
479 26-04-2010 23:49:05 14.1 C 5.95 g/m*3 14.1 C 0 km/h
480 27-04-2010 00:01:05 14 C 6.03 g/m*3 14 C 0 km/h
481 27-04-2010 00:13:05 13.7 C 6.04 g/m*3 13.7 C 0 km/h
482 27-04-2010 00:25:05 13.7 C 6.16 g/m*3 13.7 C 0 km/h
483 27-04-2010 00:37:06 13.5 C 6.08 g/m*3 13.5 C 0 km/h
484 27-04-2010 00:49:06 13.6 C 6.24 g/m*3 13.6 C 0 km/h
485 27-04-2010 01:01:06 13.6 C 6.24 g/m*3 13.6 C 0 km/h
486 27-04-2010 01:13:06 13.4 C 6.16 g/m*3 13.4 C 0 km/h
487 27-04-2010 01:25:06 13.4 C 6.28 g/m*3 13.4 C 0 km/h
488 27-04-2010 01:37:06 13.2 C 6.2 g/m*3 13.2 C 0 km/h
489 27-04-2010 01:49:06 12.9 C 6.31 g/m*3 12.9 C 0 km/h
490 27-04-2010 02:01:06 13 C 6.35 g/m*3 13 C 0 km/h
491 27-04-2010 02:13:06 13 C 6.46 g/m*3 13 C 0 km/h
492 27-04-2010 02:25:06 12.6 C 6.42 g/m*3 12.6 C 0 km/h
493 27-04-2010 02:37:06 12.4 C 6.45 g/m*3 12.4 C 0 km/h
494 27-04-2010 02:49:06 12 C 6.5 g/m*3 12 C 0 km/h
495 27-04-2010 03:01:06 11.8 C 6.53 g/m*3 11.8 C 0 km/h
496 27-04-2010 03:13:06 11.6 C 6.55 g/m*3 11.6 C 0 km/h
497 27-04-2010 03:25:06 11.2 C 6.49 g/m*3 11.2 C 0 km/h
498 27-04-2010 03:37:06 10.9 C 6.56 g/m*3 10.9 C 0 km/h
499 27-04-2010 03:49:06 10.8 C 6.52 g/m*3 10.8 C 0 km/h
500 27-04-2010 04:01:06 10.8 C 6.62 g/m*3 10.8 C 0 km/h
Sensor: Nr:Datum:Temp:Abs-Feuchte:Windchill:Wind:
Aussen-T/F 501 27-04-2010 04:13:06 10.6 C 6.44 g/m*3 10.6 C 0 km/h
502 27-04-2010 04:25:06 10.3 C 6.42 g/m*3 10.3 C 0 km/h
503 27-04-2010 04:37:07 10.1 C 6.52 g/m*3 10.1 C 0 km/h
504 27-04-2010 04:49:07 9.8 C 6.68 g/m*3 9.8 C 0 km/h
505 27-04-2010 05:01:07 9.6 C 6.6 g/m*3 9.6 C 0 km/h
506 27-04-2010 05:13:07 9.4 C 6.6 g/m*3 9.4 C 0 km/h
507 27-04-2010 05:25:07 9.2 C 6.61 g/m*3 9.2 C 0 km/h
508 27-04-2010 05:37:07 9 C 6.52 g/m*3 9 C 0 km/h
509 27-04-2010 05:49:07 8.7 C 6.49 g/m*3 8.7 C 0 km/h
510 27-04-2010 06:01:07 8.8 C 6.61 g/m*3 8.8 C 0 km/h
511 27-04-2010 06:13:07 8.4 C 6.62 g/m*3 8.4 C 0 km/h
512 27-04-2010 06:25:07 8.2 C 6.62 g/m*3 8.2 C 0 km/h
513 27-04-2010 06:37:05 8.1 C 6.57 g/m*3 8.1 C 0 km/h
514 27-04-2010 06:49:01 8.1 C 6.66 g/m*3 8.1 C 0 km/h
515 27-04-2010 07:01:02 8.1 C 6.74 g/m*3 8.1 C 0 km/h
516 27-04-2010 07:13:02 8.1 C 6.74 g/m*3 8.1 C 0 km/h
517 27-04-2010 07:25:02 8 C 6.7 g/m*3 8 C 0 km/h
518 27-04-2010 07:37:02 8.2 C 6.78 g/m*3 8.2 C 0 km/h
519 27-04-2010 07:49:01 8.6 C 6.96 g/m*3 8.6 C 0 km/h
520 27-04-2010 08:01:02 8.6 C 6.87 g/m*3 8.6 C 0 km/h
521 27-04-2010 08:13:02 8.9 C 6.92 g/m*3 8.9 C 0 km/h
522 27-04-2010 08:25:01 9.2 C 6.88 g/m*3 9.2 C 0 km/h
523 27-04-2010 08:37:02 9.2 C 6.88 g/m*3 9.2 C 0 km/h
524 27-04-2010 08:49:02 9.7 C 7.01 g/m*3 9.7 C 0 km/h
525 27-04-2010 09:01:02 10.1 C 7 g/m*3 10.1 C 0 km/h
Sensor: Nr:Datum:Temp:Abs-Feuchte:Windchill:Wind:
Aussen-T/F 526 27-04-2010 09:13:02 10.6 C 7.03 g/m*3 10.6 C 0 km/h
527 27-04-2010 09:25:01 11.1 C 7.05 g/m*3 11.1 C 0 km/h
528 27-04-2010 09:37:02 11.8 C 7.37 g/m*3 11.8 C 0 km/h
529 27-04-2010 09:49:01 12.4 C 7.32 g/m*3 12.4 C 0 km/h
530 27-04-2010 10:01:02 13 C 7.14 g/m*3 13 C 0 km/h
531 27-04-2010 10:13:02 13.6 C 7.06 g/m*3 13.6 C 0 km/h
532 27-04-2010 10:25:02 14.1 C 6.92 g/m*3 14.1 C 0 km/h
533 27-04-2010 10:37:02 14.3 C 6.76 g/m*3 14.3 C 0 km/h
534 27-04-2010 10:49:01 14 C 6.27 g/m*3 14 C 0 km/h
535 27-04-2010 11:01:02 14.6 C 6.51 g/m*3 14.6 C 0 km/h
536 27-04-2010 11:13:02 15.3 C 6.53 g/m*3 15.3 C 0 km/h
537 27-04-2010 11:25:02 16.1 C 6.44 g/m*3 16.1 C 0 km/h
538 27-04-2010 11:37:02 16.9 C 6.62 g/m*3 16.9 C 0 km/h
539 27-04-2010 11:49:01 17.4 C 6.52 g/m*3 17.4 C 0 km/h
540 27-04-2010 12:01:02 18.1 C 6.49 g/m*3 18.1 C 0 km/h
541 27-04-2010 12:13:02 17.8 C 6.37 g/m*3 17.8 C 0 km/h
542 27-04-2010 12:25:02 18.8 C 6.44 g/m*3 18.8 C 0 km/h
543 27-04-2010 12:37:02 19.3 C 6.14 g/m*3 19.3 C 0 km/h
544 27-04-2010 12:49:01 18.6 C 5.73 g/m*3 18.6 C 0 km/h
545 27-04-2010 13:01:02 19.1 C 5.74 g/m*3 19.1 C 0 km/h
546 27-04-2010 13:13:02 19.7 C 5.94 g/m*3 19.7 C 0 km/h
547 27-04-2010 13:25:02 21 C 5.68 g/m*3 21 C 0 km/h
548 27-04-2010 13:37:01 20.9 C 5.28 g/m*3 20.9 C 0 km/h
549 27-04-2010 13:49:02 21 C 4.95 g/m*3 21 C 0 km/h
550 27-04-2010 14:01:01 21.3 C 4.85 g/m*3 21.3 C 0 km/h
Sensor: Nr:Datum:Temp:Abs-Feuchte:Windchill:Wind:
Aussen-T/F 551 27-04-2010 14:13:01 22.1 C 4.88 g/m*3 22.1 C 0 km/h
552 27-04-2010 14:25:02 21.9 C 5.21 g/m*3 21.9 C 0 km/h
553 27-04-2010 14:37:01 21.8 C 4.8 g/m*3 21.8 C 0 km/h
554 27-04-2010 14:49:02 20 C 4.84 g/m*3 20 C 0 km/h
555 27-04-2010 15:01:01 21.5 C 4.9 g/m*3 21.5 C 0 km/h
556 27-04-2010 15:13:01 23.9 C 4.98 g/m*3 23.9 C 0 km/h
557 27-04-2010 15:25:02 22.6 C 4.22 g/m*3 22.6 C 0 km/h
558 27-04-2010 15:37:01 23.2 C 4.78 g/m*3 23.2 C 0 km/h
559 27-04-2010 15:49:03 21.9 C 4.25 g/m*3 21.9 C 0 km/h
560 27-04-2010 16:01:02 22.5 C 4.39 g/m*3 22.5 C 0 km/h
561 27-04-2010 16:13:02 22.6 C 4.02 g/m*3 22.6 C 0 km/h
562 27-04-2010 16:25:02 23.3 C 4.39 g/m*3 23.3 C 0 km/h
563 27-04-2010 16:37:02 23.9 C 4.33 g/m*3 23.9 C 0 km/h
564 27-04-2010 16:49:02 23.7 C 4.28 g/m*3 23.7 C 0 km/h
565 27-04-2010 17:01:02 24.2 C 4.4 g/m*3 24.2 C 0 km/h
566 27-04-2010 17:13:02 22.7 C 4.24 g/m*3 22.7 C 0 km/h
567 27-04-2010 17:25:02 24 C 4.35 g/m*3 24 C 0 km/h
568 27-04-2010 17:37:02 23.8 C 4.3 g/m*3 23.8 C 0 km/h
569 27-04-2010 17:49:02 23.1 C 4.13 g/m*3 23.1 C 0 km/h
570 27-04-2010 18:01:02 24.2 C 4.4 g/m*3 24.2 C 0 km/h
571 27-04-2010 18:13:02 24.1 C 4.38 g/m*3 24.1 C 0 km/h
572 27-04-2010 18:25:02 23.2 C 4.16 g/m*3 23.2 C 0 km/h
573 27-04-2010 18:37:01 22.4 C 3.97 g/m*3 22.4 C 0 km/h
574 27-04-2010 18:49:02 22.2 C 3.93 g/m*3 22.2 C 0 km/h
575 27-04-2010 19:01:01 21.3 C 3.73 g/m*3 21.3 C 0 km/h
Sensor: Nr:Datum:Temp:Abs-Feuchte:Windchill:Wind:
Aussen-T/F 576 27-04-2010 19:13:01 21.3 C 4.1 g/m*3 21.3 C 0 km/h
577 27-04-2010 19:25:02 20.6 C 4.12 g/m*3 20.6 C 0 km/h
578 27-04-2010 19:37:01 20.2 C 4.37 g/m*3 20.2 C 0 km/h
579 27-04-2010 19:49:02 20 C 4.67 g/m*3 20 C 0 km/h
580 27-04-2010 20:01:01 19.7 C 4.92 g/m*3 19.7 C 0 km/h
581 27-04-2010 20:13:01 19.3 C 4.98 g/m*3 19.3 C 0 km/h
582 27-04-2010 20:25:02 18.4 C 5.03 g/m*3 18.4 C 0 km/h
583 27-04-2010 20:37:01 17.5 C 5.22 g/m*3 17.5 C 0 km/h
584 27-04-2010 20:49:02 16.8 C 5 g/m*3 16.8 C 0 km/h
585 27-04-2010 21:01:02 16.3 C 4.99 g/m*3 16.3 C 0 km/h
586 27-04-2010 21:13:02 15.9 C 5.01 g/m*3 15.9 C 0 km/h
587 27-04-2010 21:25:02 15.5 C 5.02 g/m*3 15.5 C 0 km/h
588 27-04-2010 21:37:02 15.2 C 4.93 g/m*3 15.2 C 0 km/h
589 27-04-2010 21:50:02 15.1 C 5.16 g/m*3 15.1 C 0 km/h
590 27-04-2010 22:02:02 14.9 C 5.23 g/m*3 14.9 C 0 km/h
591 27-04-2010 22:14:02 14.7 C 5.16 g/m*3 14.7 C 0 km/h
592 27-04-2010 22:26:02 14.4 C 5.19 g/m*3 14.4 C 0 km/h
593 27-04-2010 22:38:02 14.2 C 5.13 g/m*3 14.2 C 0 km/h
594 27-04-2010 22:50:02 14 C 5.19 g/m*3 14 C 0 km/h
595 27-04-2010 23:02:03 13.7 C 5.33 g/m*3 13.7 C 0 km/h
596 27-04-2010 23:14:03 13.4 C 5.35 g/m*3 13.4 C 0 km/h
597 27-04-2010 23:26:03 13.1 C 5.36 g/m*3 13.1 C 0 km/h
598 27-04-2010 23:38:03 12.7 C 5.34 g/m*3 12.7 C 0 km/h
599 27-04-2010 23:50:03 12.6 C 5.42 g/m*3 12.6 C 0 km/h
600 28-04-2010 00:02:03 12.5 C 5.5 g/m*3 12.5 C 0 km/h
Sensor: Nr:Datum:Temp:Abs-Feuchte:Windchill:Wind:
Aussen-T/F 601 28-04-2010 00:14:03 12.3 C 5.43 g/m*3 12.3 C 0 km/h
602 28-04-2010 00:26:03 12.2 C 5.5 g/m*3 12.2 C 0 km/h
603 28-04-2010 00:38:03 12 C 5.54 g/m*3 12 C 0 km/h
604 28-04-2010 00:50:03 11.9 C 5.61 g/m*3 11.9 C 0 km/h
605 28-04-2010 01:02:03 11.7 C 5.65 g/m*3 11.7 C 0 km/h
606 28-04-2010 01:14:03 11.5 C 5.58 g/m*3 11.5 C 0 km/h
607 28-04-2010 01:26:03 11.1 C 5.74 g/m*3 11.1 C 0 km/h
608 28-04-2010 01:38:03 10.8 C 5.83 g/m*3 10.8 C 0 km/h
609 28-04-2010 01:50:03 10.8 C 5.83 g/m*3 10.8 C 0 km/h
610 28-04-2010 02:02:03 10.8 C 5.83 g/m*3 10.8 C 0 km/h
611 28-04-2010 02:14:03 10.7 C 5.8 g/m*3 10.7 C 0 km/h
612 28-04-2010 02:26:03 10.5 C 5.82 g/m*3 10.5 C 0 km/h
613 28-04-2010 02:38:03 10.3 C 5.75 g/m*3 10.3 C 0 km/h
614 28-04-2010 02:50:03 10.1 C 5.67 g/m*3 10.1 C 0 km/h
615 28-04-2010 03:02:04 9.9 C 5.79 g/m*3 9.9 C 0 km/h
616 28-04-2010 03:14:04 9.8 C 5.75 g/m*3 9.8 C 0 km/h
617 28-04-2010 03:26:04 9.7 C 5.81 g/m*3 9.7 C 0 km/h
618 28-04-2010 03:38:04 9.5 C 5.83 g/m*3 9.5 C 0 km/h
619 28-04-2010 03:50:04 9.3 C 5.84 g/m*3 9.3 C 0 km/h
620 28-04-2010 04:02:04 9.1 C 5.86 g/m*3 9.1 C 0 km/h
621 28-04-2010 04:14:04 8.9 C 5.96 g/m*3 8.9 C 0 km/h
622 28-04-2010 04:26:04 8.7 C 5.97 g/m*3 8.7 C 0 km/h
623 28-04-2010 04:38:04 8.5 C 5.98 g/m*3 8.5 C 0 km/h
624 28-04-2010 04:50:04 8.3 C 5.9 g/m*3 8.3 C 0 km/h
625 28-04-2010 05:02:04 8.2 C 5.95 g/m*3 8.2 C 0 km/h
Sensor: Nr:Datum:Temp:Abs-Feuchte:Windchill:Wind:
Aussen-T/F 626 28-04-2010 05:14:04 7.9 C 5.91 g/m*3 7.9 C 0 km/h
627 28-04-2010 05:26:04 7.9 C 5.91 g/m*3 7.9 C 0 km/h
628 28-04-2010 05:38:04 7.7 C 5.84 g/m*3 7.7 C 0 km/h
629 28-04-2010 05:50:04 7.6 C 5.8 g/m*3 7.6 C 0 km/h
630 28-04-2010 06:02:04 7.5 C 5.76 g/m*3 7.5 C 0 km/h
631 28-04-2010 06:14:04 7.3 C 5.77 g/m*3 7.3 C 0 km/h
632 28-04-2010 06:26:04 7.2 C 5.81 g/m*3 7.2 C 0 km/h
633 28-04-2010 06:38:04 7.1 C 5.85 g/m*3 7.1 C 0 km/h
634 28-04-2010 06:50:04 7.1 C 5.85 g/m*3 7.1 C 0 km/h
635 28-04-2010 07:02:01 7.2 C 5.89 g/m*3 7.2 C 0 km/h
636 28-04-2010 07:14:01 7.3 C 6 g/m*3 7.3 C 0 km/h
637 28-04-2010 07:26:02 7.4 C 5.96 g/m*3 7.4 C 0 km/h
638 28-04-2010 07:38:01 7.6 C 6.12 g/m*3 7.6 C 0 km/h
639 28-04-2010 07:50:02 7.7 C 6.08 g/m*3 7.7 C 0 km/h
640 28-04-2010 08:02:01 7.9 C 6.16 g/m*3 7.9 C 0 km/h
641 28-04-2010 08:14:01 8 C 6.04 g/m*3 8 C 0 km/h
642 28-04-2010 08:26:02 8.2 C 6.11 g/m*3 8.2 C 0 km/h
643 28-04-2010 08:38:01 8.6 C 6.19 g/m*3 8.6 C 0 km/h
644 28-04-2010 08:50:02 8.8 C 6.18 g/m*3 8.8 C 0 km/h
645 28-04-2010 09:02:02 9.2 C 6.16 g/m*3 9.2 C 0 km/h
646 28-04-2010 09:14:02 9.8 C 6.31 g/m*3 9.8 C 0 km/h
647 28-04-2010 09:26:02 10.5 C 6.4 g/m*3 10.5 C 0 km/h
648 28-04-2010 09:38:02 11.1 C 6.45 g/m*3 11.1 C 0 km/h
649 28-04-2010 09:50:02 11.7 C 6.38 g/m*3 11.7 C 0 km/h
650 28-04-2010 10:02:02 12.4 C 6.56 g/m*3 12.4 C 0 km/h
Sensor: Nr:Datum:Temp:Abs-Feuchte:Windchill:Wind:
Aussen-T/F 651 28-04-2010 10:14:02 13.2 C 6.43 g/m*3 13.2 C 0 km/h
652 28-04-2010 10:26:02 13.8 C 6.43 g/m*3 13.8 C 0 km/h
653 28-04-2010 10:38:02 14.8 C 6.21 g/m*3 14.8 C 0 km/h
654 28-04-2010 10:50:02 15.6 C 6.12 g/m*3 15.6 C 0 km/h
655 28-04-2010 11:02:01 16.3 C 5.97 g/m*3 16.3 C 0 km/h
656 28-04-2010 11:14:01 17.3 C 6.19 g/m*3 17.3 C 0 km/h
657 28-04-2010 11:26:02 18 C 6.14 g/m*3 18 C 0 km/h
658 28-04-2010 11:38:01 18.4 C 5.82 g/m*3 18.4 C 0 km/h
659 28-04-2010 11:50:03 18.8 C 5.31 g/m*3 18.8 C 0 km/h
660 28-04-2010 12:02:02 19.1 C 5.25 g/m*3 19.1 C 0 km/h
661 28-04-2010 12:14:02 19.7 C 4.58 g/m*3 19.7 C 0 km/h
662 28-04-2010 12:26:02 20 C 4.49 g/m*3 20 C 0 km/h
663 28-04-2010 12:38:02 20.6 C 4.47 g/m*3 20.6 C 0 km/h
664 28-04-2010 12:50:02 21.1 C 4.24 g/m*3 21.1 C 0 km/h
665 28-04-2010 13:02:01 21.4 C 4.12 g/m*3 21.4 C 0 km/h
666 28-04-2010 13:14:01 22.6 C 4.02 g/m*3 22.6 C 0 km/h
667 28-04-2010 13:26:02 23.5 C 4.23 g/m*3 23.5 C 0 km/h
668 28-04-2010 13:38:01 23.3 C 4.18 g/m*3 23.3 C 0 km/h
669 28-04-2010 13:50:02 23.5 C 4.23 g/m*3 23.5 C 0 km/h
670 28-04-2010 14:02:01 24.1 C 4.38 g/m*3 24.1 C 0 km/h
671 28-04-2010 14:14:01 24.6 C 4.5 g/m*3 24.6 C 0 km/h
672 28-04-2010 14:26:02 24.9 C 4.58 g/m*3 24.9 C 0 km/h
673 28-04-2010 14:38:01 24.5 C 4.48 g/m*3 24.5 C 0 km/h
674 28-04-2010 14:50:02 24.7 C 4.53 g/m*3 24.7 C 0 km/h
675 28-04-2010 15:02:02 25.8 C 4.82 g/m*3 25.8 C 0 km/h
Sensor: Nr:Datum:Temp:Abs-Feuchte:Windchill:Wind:
Aussen-T/F 676 28-04-2010 15:14:02 25.5 C 4.73 g/m*3 25.5 C 0 km/h
677 28-04-2010 15:26:02 25.8 C 4.82 g/m*3 25.8 C 0 km/h
678 28-04-2010 15:38:02 26.4 C 4.98 g/m*3 26.4 C 0 km/h
679 28-04-2010 15:50:02 26.6 C 5.03 g/m*3 26.6 C 0 km/h
680 28-04-2010 16:02:02 27.4 C 5.26 g/m*3 27.4 C 0 km/h
681 28-04-2010 16:14:02 27.6 C 5.32 g/m*3 27.6 C 0 km/h
682 28-04-2010 16:26:02 28 C 5.44 g/m*3 28 C 0 km/h
683 28-04-2010 16:38:01 28 C 5.44 g/m*3 28 C 0 km/h
684 28-04-2010 16:50:02 27.9 C 5.41 g/m*3 27.9 C 0 km/h
685 28-04-2010 17:02:01 28 C 5.44 g/m*3 28 C 0 km/h
686 28-04-2010 17:14:01 29.2 C 5.81 g/m*3 29.2 C 0 km/h
687 28-04-2010 17:26:02 28.9 C 5.71 g/m*3 28.9 C 0 km/h
688 28-04-2010 17:38:01 27.9 C 5.41 g/m*3 27.9 C 0 km/h
689 28-04-2010 17:50:02 28.5 C 5.59 g/m*3 28.5 C 0 km/h
690 28-04-2010 18:02:02 28.2 C 5.5 g/m*3 28.2 C 0 km/h
691 28-04-2010 18:14:02 28.4 C 5.56 g/m*3 28.4 C 0 km/h
692 28-04-2010 18:26:02 28.4 C 5.56 g/m*3 28.4 C 0 km/h
693 28-04-2010 18:38:02 28.3 C 5.53 g/m*3 28.3 C 0 km/h
694 28-04-2010 18:50:02 27.9 C 5.41 g/m*3 27.9 C 0 km/h
695 28-04-2010 19:02:01 27.1 C 5.18 g/m*3 27.1 C 0 km/h
696 28-04-2010 19:14:01 26.5 C 5.01 g/m*3 26.5 C 0 km/h
697 28-04-2010 19:26:02 25.9 C 4.84 g/m*3 25.9 C 0 km/h
698 28-04-2010 19:38:01 25 C 4.83 g/m*3 25 C 0 km/h
699 28-04-2010 19:50:02 24.6 C 4.95 g/m*3 24.6 C 0 km/h
700 28-04-2010 20:02:01 23.9 C 5.41 g/m*3 23.9 C 0 km/h
Sensor: Nr:Datum:Temp:Abs-Feuchte:Windchill:Wind:
Aussen-T/F 701 28-04-2010 20:14:01 23 C 5.34 g/m*3 23 C 0 km/h
702 28-04-2010 20:26:01 22.1 C 5.47 g/m*3 22.1 C 0 km/h
703 28-04-2010 20:38:02 21.3 C 5.59 g/m*3 21.3 C 0 km/h
704 28-04-2010 20:50:02 20.4 C 5.48 g/m*3 20.4 C 0 km/h
705 28-04-2010 21:02:02 19.7 C 5.6 g/m*3 19.7 C 0 km/h
706 28-04-2010 21:14:02 19.3 C 5.47 g/m*3 19.3 C 0 km/h
707 28-04-2010 21:26:02 18.9 C 5.67 g/m*3 18.9 C 0 km/h
708 28-04-2010 21:38:01 18.8 C 5.64 g/m*3 18.8 C 0 km/h
709 28-04-2010 21:51:04 18.5 C 5.54 g/m*3 18.5 C 0 km/h
710 28-04-2010 22:03:04 18.5 C 5.7 g/m*3 18.5 C 0 km/h
711 28-04-2010 22:15:04 18.3 C 5.63 g/m*3 18.3 C 0 km/h
712 28-04-2010 22:27:04 18.2 C 5.6 g/m*3 18.2 C 0 km/h
713 28-04-2010 22:39:04 18 C 5.68 g/m*3 18 C 0 km/h
714 28-04-2010 22:51:04 18 C 5.53 g/m*3 18 C 0 km/h
715 28-04-2010 23:03:04 17.7 C 5.73 g/m*3 17.7 C 0 km/h
716 28-04-2010 23:15:04 17.3 C 5.75 g/m*3 17.3 C 0 km/h
717 28-04-2010 23:27:04 17 C 5.64 g/m*3 17 C 0 km/h
718 28-04-2010 23:39:04 16.6 C 5.79 g/m*3 16.6 C 0 km/h
719 28-04-2010 23:51:04 16.2 C 5.79 g/m*3 16.2 C 0 km/h
720 29-04-2010 00:03:04 16.2 C 5.79 g/m*3 16.2 C 0 km/h
721 29-04-2010 00:15:04 15.8 C 6.06 g/m*3 15.8 C 0 km/h
722 29-04-2010 00:27:05 15.4 C 5.78 g/m*3 15.4 C 0 km/h
723 29-04-2010 00:39:05 15.1 C 5.93 g/m*3 15.1 C 0 km/h
724 29-04-2010 00:51:05 14.7 C 5.79 g/m*3 14.7 C 0 km/h
725 29-04-2010 01:03:05 14.6 C 5.88 g/m*3 14.6 C 0 km/h
Sensor: Nr:Datum:Temp:Abs-Feuchte:Windchill:Wind:
Aussen-T/F 726 29-04-2010 01:15:05 14.2 C 5.74 g/m*3 14.2 C 0 km/h
727 29-04-2010 01:27:05 14 C 5.67 g/m*3 14 C 0 km/h
728 29-04-2010 01:39:05 13.8 C 5.72 g/m*3 13.8 C 0 km/h
729 29-04-2010 01:51:05 13.5 C 5.85 g/m*3 13.5 C 0 km/h
730 29-04-2010 02:03:05 13.6 C 5.88 g/m*3 13.6 C 0 km/h
731 29-04-2010 02:15:05 12.8 C 6.05 g/m*3 12.8 C 0 km/h
732 29-04-2010 02:27:05 12.9 C 6.09 g/m*3 12.9 C 0 km/h
733 29-04-2010 02:39:05 12.7 C 6.01 g/m*3 12.7 C 0 km/h
734 29-04-2010 02:51:05 12.5 C 6.16 g/m*3 12.5 C 0 km/h
735 29-04-2010 03:03:05 12.2 C 6.37 g/m*3 12.2 C 0 km/h
736 29-04-2010 03:15:05 12 C 6.29 g/m*3 12 C 0 km/h
737 29-04-2010 03:27:05 11.8 C 6.21 g/m*3 11.8 C 0 km/h
738 29-04-2010 03:39:05 11.8 C 6.31 g/m*3 11.8 C 0 km/h
739 29-04-2010 03:51:05 11.7 C 6.38 g/m*3 11.7 C 0 km/h
740 29-04-2010 04:03:05 11.7 C 6.38 g/m*3 11.7 C 0 km/h
741 29-04-2010 04:15:05 11.5 C 6.4 g/m*3 11.5 C 0 km/h
742 29-04-2010 04:27:06 11.2 C 6.49 g/m*3 11.2 C 0 km/h
743 29-04-2010 04:39:06 10.9 C 6.56 g/m*3 10.9 C 0 km/h
744 29-04-2010 04:51:06 10.8 C 6.42 g/m*3 10.8 C 0 km/h
745 29-04-2010 05:03:06 10.7 C 6.38 g/m*3 10.7 C 0 km/h
746 29-04-2010 05:15:06 10.6 C 6.34 g/m*3 10.6 C 0 km/h
747 29-04-2010 05:27:06 10.4 C 6.26 g/m*3 10.4 C 0 km/h
748 29-04-2010 05:39:06 10.3 C 6.32 g/m*3 10.3 C 0 km/h
749 29-04-2010 05:51:06 10.2 C 6.28 g/m*3 10.2 C 0 km/h
750 29-04-2010 06:03:06 10.1 C 6.24 g/m*3 10.1 C 0 km/h
Sensor: Nr:Datum:Temp:Abs-Feuchte:Windchill:Wind:
Aussen-T/F 751 29-04-2010 06:15:06 9.9 C 6.35 g/m*3 9.9 C 0 km/h
752 29-04-2010 06:27:06 9.7 C 6.45 g/m*3 9.7 C 0 km/h
753 29-04-2010 06:39:06 9.8 C 6.49 g/m*3 9.8 C 0 km/h
754 29-04-2010 06:51:01 9.8 C 6.49 g/m*3 9.8 C 0 km/h
755 29-04-2010 07:03:02 10 C 6.48 g/m*3 10 C 0 km/h
756 29-04-2010 07:15:01 10.1 C 6.52 g/m*3 10.1 C 0 km/h
757 29-04-2010 07:27:01 10.3 C 6.61 g/m*3 10.3 C 0 km/h
758 29-04-2010 07:39:02 10.3 C 6.61 g/m*3 10.3 C 0 km/h
759 29-04-2010 07:51:02 10.4 C 6.65 g/m*3 10.4 C 0 km/h
760 29-04-2010 08:03:02 10.9 C 6.76 g/m*3 10.9 C 0 km/h
761 29-04-2010 08:15:02 11.9 C 6.88 g/m*3 11.9 C 0 km/h
762 29-04-2010 08:27:02 12.5 C 6.71 g/m*3 12.5 C 0 km/h
763 29-04-2010 08:39:02 12.8 C 6.72 g/m*3 12.8 C 0 km/h
764 29-04-2010 08:51:01 12.9 C 6.76 g/m*3 12.9 C 0 km/h
765 29-04-2010 09:03:02 12.8 C 6.72 g/m*3 12.8 C 0 km/h
766 29-04-2010 09:15:02 13.1 C 6.62 g/m*3 13.1 C 0 km/h
767 29-04-2010 09:27:02 14 C 6.39 g/m*3 14 C 0 km/h
768 29-04-2010 09:39:02 14.9 C 6.5 g/m*3 14.9 C 0 km/h
769 29-04-2010 09:51:01 15.7 C 6.15 g/m*3 15.7 C 0 km/h
770 29-04-2010 10:03:02 16.6 C 6.36 g/m*3 16.6 C 0 km/h
771 29-04-2010 10:15:02 17.4 C 6.37 g/m*3 17.4 C 0 km/h
772 29-04-2010 10:27:02 17.7 C 6.49 g/m*3 17.7 C 0 km/h
773 29-04-2010 10:39:01 18.3 C 6.88 g/m*3 18.3 C 0 km/h
774 29-04-2010 10:51:01 19.3 C 6.8 g/m*3 19.3 C 0 km/h
775 29-04-2010 11:03:01 20.1 C 6.78 g/m*3 20.1 C 0 km/h
Sensor: Nr:Datum:Temp:Abs-Feuchte:Windchill:Wind:
Aussen-T/F 776 29-04-2010 11:15:02 20.9 C 6.74 g/m*3 20.9 C 0 km/h
777 29-04-2010 11:27:02 22 C 6.4 g/m*3 22 C 0 km/h
778 29-04-2010 11:39:01 22.3 C 6.12 g/m*3 22.3 C 0 km/h
779 29-04-2010 11:51:01 22.5 C 6.39 g/m*3 22.5 C 0 km/h
780 29-04-2010 12:03:01 22.7 C 6.26 g/m*3 22.7 C 0 km/h
781 29-04-2010 12:15:02 23.7 C 6.2 g/m*3 23.7 C 0 km/h
782 29-04-2010 12:27:02 24 C 5.87 g/m*3 24 C 0 km/h
783 29-04-2010 12:39:01 24.3 C 5.75 g/m*3 24.3 C 0 km/h
784 29-04-2010 12:51:03 24.7 C 4.75 g/m*3 24.7 C 0 km/h
785 29-04-2010 13:03:02 25.2 C 4.66 g/m*3 25.2 C 0 km/h
786 29-04-2010 13:15:03 25.7 C 4.79 g/m*3 25.7 C 0 km/h
787 29-04-2010 13:27:03 25.9 C 4.84 g/m*3 25.9 C 0 km/h
788 29-04-2010 13:39:02 26.1 C 4.9 g/m*3 26.1 C 0 km/h
789 29-04-2010 13:51:03 26.4 C 4.98 g/m*3 26.4 C 0 km/h
790 29-04-2010 14:03:02 26.4 C 4.98 g/m*3 26.4 C 0 km/h
791 29-04-2010 14:15:02 26.6 C 5.03 g/m*3 26.6 C 0 km/h
792 29-04-2010 14:27:02 27.1 C 5.18 g/m*3 27.1 C 0 km/h
793 29-04-2010 14:39:02 27 C 5.15 g/m*3 27 C 0 km/h
794 29-04-2010 14:51:02 28 C 5.44 g/m*3 28 C 0 km/h
795 29-04-2010 15:03:02 27.9 C 5.41 g/m*3 27.9 C 0 km/h
796 29-04-2010 15:15:02 27.6 C 5.32 g/m*3 27.6 C 0 km/h
797 29-04-2010 15:27:02 27.6 C 5.32 g/m*3 27.6 C 0 km/h
798 29-04-2010 15:39:01 27.6 C 5.32 g/m*3 27.6 C 0 km/h
799 29-04-2010 15:51:02 27.6 C 5.32 g/m*3 27.6 C 0 km/h
800 29-04-2010 16:03:01 27.9 C 5.41 g/m*3 27.9 C 0 km/h
Sensor: Nr:Datum:Temp:Abs-Feuchte:Windchill:Wind:
Aussen-T/F 801 29-04-2010 16:15:02 27.8 C 5.38 g/m*3 27.8 C 0 km/h
802 29-04-2010 16:27:02 27.9 C 5.41 g/m*3 27.9 C 0 km/h
803 29-04-2010 16:39:01 27.6 C 5.32 g/m*3 27.6 C 0 km/h
804 29-04-2010 16:51:03 27.8 C 5.38 g/m*3 27.8 C 0 km/h
805 29-04-2010 17:03:02 27.8 C 5.38 g/m*3 27.8 C 0 km/h
806 29-04-2010 17:15:02 27.8 C 5.38 g/m*3 27.8 C 0 km/h
807 29-04-2010 17:27:02 27.5 C 5.29 g/m*3 27.5 C 0 km/h
808 29-04-2010 17:39:02 27.8 C 5.38 g/m*3 27.8 C 0 km/h
809 29-04-2010 17:51:02 28.4 C 5.56 g/m*3 28.4 C 0 km/h
810 29-04-2010 18:03:02 28 C 5.44 g/m*3 28 C 0 km/h
811 29-04-2010 18:15:02 27.8 C 5.38 g/m*3 27.8 C 0 km/h
812 29-04-2010 18:27:02 27.5 C 5.29 g/m*3 27.5 C 0 km/h
813 29-04-2010 18:39:02 27.5 C 5.29 g/m*3 27.5 C 0 km/h
814 29-04-2010 18:51:02 27 C 5.15 g/m*3 27 C 0 km/h
815 29-04-2010 19:03:02 26.5 C 5.01 g/m*3 26.5 C 0 km/h
816 29-04-2010 19:15:02 26.1 C 4.9 g/m*3 26.1 C 0 km/h
817 29-04-2010 19:27:02 25.7 C 4.79 g/m*3 25.7 C 0 km/h
818 29-04-2010 19:39:02 25.3 C 4.68 g/m*3 25.3 C 0 km/h
819 29-04-2010 19:51:01 24.8 C 5.01 g/m*3 24.8 C 0 km/h
820 29-04-2010 20:03:02 24.4 C 5.12 g/m*3 24.4 C 0 km/h
821 29-04-2010 20:15:02 23.9 C 5.41 g/m*3 23.9 C 0 km/h
822 29-04-2010 20:27:02 23.6 C 5.53 g/m*3 23.6 C 0 km/h
823 29-04-2010 20:39:02 23.1 C 5.58 g/m*3 23.1 C 0 km/h
824 29-04-2010 20:51:02 22.6 C 6.03 g/m*3 22.6 C 0 km/h
825 29-04-2010 21:03:02 22.2 C 6.09 g/m*3 22.2 C 0 km/h
Sensor: Nr:Datum:Temp:Abs-Feuchte:Windchill:Wind:
Aussen-T/F 826 29-04-2010 21:15:02 21.9 C 6.37 g/m*3 21.9 C 0 km/h
827 29-04-2010 21:27:02 21.7 C 6.29 g/m*3 21.7 C 0 km/h
828 29-04-2010 21:39:01 21.6 C 6.45 g/m*3 21.6 C 0 km/h
829 29-04-2010 21:51:02 21.5 C 6.41 g/m*3 21.5 C 0 km/h
830 29-04-2010 22:03:01 21.4 C 6.56 g/m*3 21.4 C 0 km/h
831 29-04-2010 22:15:02 21.3 C 6.52 g/m*3 21.3 C 0 km/h
832 29-04-2010 22:27:02 21.1 C 6.63 g/m*3 21.1 C 0 km/h
833 29-04-2010 22:39:01 20.7 C 7.02 g/m*3 20.7 C 0 km/h
834 29-04-2010 22:51:02 20.5 C 7.12 g/m*3 20.5 C 0 km/h
835 29-04-2010 23:04:01 20.4 C 7.08 g/m*3 20.4 C 0 km/h
836 29-04-2010 23:16:01 20.1 C 7.13 g/m*3 20.1 C 0 km/h
837 29-04-2010 23:28:01 19.7 C 7.3 g/m*3 19.7 C 0 km/h
838 29-04-2010 23:40:01 19.5 C 7.22 g/m*3 19.5 C 0 km/h
839 29-04-2010 23:52:01 19.3 C 7.13 g/m*3 19.3 C 0 km/h

Legende:
   Min
   Max


Maximal/Minimal-Werte vom 23.04.2010 - 29.04.2010

Sensor Min Max Avg
Temp
(Aussen-T/F)
1.2 °C
23-04-2010  06:45:04
30.2 °C
25-04-2010  16:59:03
15.83 °C
Abs-Feuchte
(Aussen-T/F)
2.38 g/m*3
23-04-2010  21:45:02
9.24 g/m*3
26-04-2010  02:59:03
5.19 g/m*3
Windchill
(Aussen-T/F)
1.2 C
23-04-2010  06:45:04
30.2 C
25-04-2010  16:59:03
15.81 C

Die Daten stammen von einer Davis Vantage Pro 2 Wetter-Station und werden unter Linux mit der Software wview2wettercgi und aufbereitet. Alle Angaben erfolgen ohne Gewähr für ihre Vollständigkeit oder Richtigkeit.
Kontakt: Rainer Krienke krienke@uni-koblenz.de . Meine Webseiten an der Uni Koblenz oder privat.
Version: $Revision: 0.78 $